Tiempo atmosférico en la estación meteorológica de Tornavacas, Cáceres (991 m.)



Fecha
DESCASC
Temp. máxima en grados centígrados (hora)
DESCASC
Temp. mínima en grados centígrados (hora)
DESCASC
Temp. media en grados centígrados
DESCASC
Racha de viento máxima en m/sg (hora)
DESCASC
Velocidad máxima media en intervalos de 10 minutos(hora)
DESCASC
Precipitaciones diarias en mm
DESCASC
Precipitaciones de 00:00 a 06:00 en mm
DESCASC
Precipitaciones de 06:00 a 12:00 en mm
DESCASC
Precipitaciones de 12:00 a 18:00 en mm
DESCASC
Precipitaciones de 18:00 a 24:00 en mm
DESCASC
16-06-2019 25.7 (17:40) 12.7 (08:10) 19.2 10.56 (03:20) 7.5 (03:20) 0 0 0 0 0
15-06-2019 22.9 (19:30) 7.2 (06:50) 15 9.72 (08:10) 6.39 (07:50) 0 0 0 0 0
14-06-2019 18.8 (17:10) 8 (06:10) 13.4 12.22 (12:20) 7.78 (01:50) 0 0 0 0 0
13-06-2019 22.9 (18:50) 7.9 (00:00) 15.4 11.67 (16:30) 7.5 (13:20) 0 0 0 0 0
12-06-2019 22.4 (18:50) 7 (00:00) 14.7 11.94 (06:20) 8.33 (04:40) 0 0 0 0 0
11-06-2019 17.7 (19:30) 10 (00:00) 13.9 13.33 (17:30) 7.78 (05:40) 0 0 0 0 0
10-06-2019 24 (18:40) 10 (00:00) 17 11.67 (09:20) 7.5 (08:10) 0 0 0 0 0
09-06-2019 22.5 (18:50) 10.3 (00:00) 16.4 10.56 (22:50) 6.67 (02:00) 0 0 0 0 0
08-06-2019 23.4 (17:10) 8 (00:00) 15.7 14.72 (06:20) 8.89 (06:20) 0 0 0 0 0
07-06-2019 19.2 (17:20) 3.9 (00:00) 11.6 12.78 (00:10) 7.5 (00:20) 0.8 0.8 0 0 0
06-06-2019 17.9 (16:30) 6.3 (00:00) 12.1 16.67 (17:30) 9.17 (19:00) 6.6 0 0 0 6.6
05-06-2019 18.1 (16:50) 8.2 (00:00) 13.2 11.11 (16:10) 7.22 (16:30) 0 0 0 0 0
04-06-2019 22 (17:00) 12.1 (00:00) 17.1 13.06 (15:20) 8.89 (15:50) 0 0 0 0 0
03-06-2019 28.2 (17:10) 17.5 (00:00) 22.9 11.39 (16:50) 7.22 (16:50) 0 0 0 0 0
02-06-2019 29.6 (16:00) 18.5 (00:00) 24.1 11.67 (00:50) 7.78 (06:50) 0 0 0 0 0
01-06-2019 30.4 (17:20) 16.6 (00:00) 23.5 7.78 (16:00) 4.72 (14:50) 0 0 0 0 0
31-05-2019 30 (18:20) 15.9 (00:00) 22.9 12.5 (04:20) 7.5 (04:10) 0 0 0 0 0
30-05-2019 28.2 (18:10) 13.9 (00:00) 21.1 12.5 (08:20) 7.5 (00:50) 0 0 0 0 0
29-05-2019 24.2 (17:20) 10.7 (00:00) 17.5 12.78 (09:30) 8.89 (09:30) 0 0 0 0 0
28-05-2019 23.1 (17:10) 13 (00:00) 18.1 11.39 (06:10) 8.89 (06:10) 0 0 0 0 0
27-05-2019 25.2 (17:20) 14.9 (00:00) 20.1 12.78 (15:00) 8.61 (08:00) 0 0 0 0 0
26-05-2019 23.8 (18:50) 11.2 (00:00) 17.5 12.78 (02:20) 7.78 (02:30) 0 0 0 0 0
25-05-2019 21.1 (17:50) 8.5 (00:00) 14.8 16.39 (03:30) 8.89 (03:50) 0 0 0 0 0
24-05-2019 20.9 (16:50) 10.3 (00:00) 15.6 13.61 (12:20) 8.33 (07:20) 0 0 0 0 0
23-05-2019 24.6 (18:30) 14.4 (00:00) 19.5 11.11 (04:50) 8.06 (04:50) 0 0 0 0 0
22-05-2019 24.6 (18:20) 12.1 (00:00) 18.4 14.17 (05:20) 8.61 (05:20) 0 0 0 0 0

Gráficas

Temp. máximas Temp. mínimas Temp. medias Precipitaciones Rachas de viento máximas Velocidades máximas media en intervalos de 10 minutos

Datos horarios

Fecha y hora oficial Temperatura (ºC) Velocidad del viento (km/h) Dirección del viento Racha (km/h) Dirección de racha Precipitación (mm) Presión (hPa) Tendencia (hPa) Humedad (%)
2019-06-20 23:00:00 16 8 Este 13 Nordeste 0 -- -- 58
2019-06-20 22:00:00 17.9 6 Sudeste 13 Sudeste 0 -- -- 54
2019-06-20 21:00:00 19.8 5 Sur 28 Sudoeste 0 -- -- 51
2019-06-20 20:00:00 22.5 19 Sudoeste 32 Sudoeste 0 -- -- 44
2019-06-20 19:00:00 22.9 21 Sudoeste 32 Sudoeste 0 -- -- 43
2019-06-20 18:00:00 23.3 19 Sudoeste 31 Sudoeste 0 -- -- 41
2019-06-20 17:00:00 23.6 15 Sudoeste 33 Sudoeste 0 -- -- 43
2019-06-20 16:00:00 22.4 19 Sudoeste 29 Sudoeste 0 -- -- 48
2019-06-20 15:00:00 21.4 15 Sudoeste 28 Sudoeste 0 -- -- 53
2019-06-20 14:00:00 20.8 14 Sudoeste 25 Sudoeste 0 -- -- 54
2019-06-20 13:00:00 19.5 17 Sudoeste 28 Sudoeste 0 -- -- 61
2019-06-20 12:00:00 17.8 15 Sudoeste 22 Sudoeste 0 -- -- 66
2019-06-20 11:00:00 18.1 10 Sudoeste 14 Sudoeste 0 -- -- 61
2019-06-20 10:00:00 17.1 8 Nordeste 23 Nordeste 0 -- -- 70
2019-06-20 09:00:00 15.7 17 Nordeste 30 Este 0 -- -- 72
2019-06-20 08:00:00 14 21 Este 41 Nordeste 0 -- -- 78
2019-06-20 07:00:00 13.7 22 Este 33 Este 0 -- -- 79
2019-06-20 06:00:00 14 17 Este 30 Este 0 -- -- 78
2019-06-20 05:00:00 14.2 19 Este 34 Nordeste 0 -- -- 76
2019-06-20 04:00:00 14.3 20 Este 32 Este 0 -- -- 76
2019-06-20 03:00:00 13.8 18 Nordeste 27 Nordeste 0 -- -- 72
2019-06-20 02:00:00 13.8 13 Nordeste 18 Nordeste 0 -- -- 69
2019-06-20 01:00:00 14 6 Este 11 Nordeste 0 -- -- 75
2019-06-20 00:00:00 14.5 7 Este 10 Nordeste 0 -- -- 73
2019-06-19 23:00:00 15 7 Este 12 Nordeste 0 -- -- 72
2019-06-19 22:00:00 16.2 7 Este 10 Este 0 -- -- 70
2019-06-19 21:00:00 18.9 5 Nordeste 15 Oeste 0 -- -- 62
2019-06-19 20:00:00 19.8 10 Sudoeste 21 Sudoeste 0 -- -- 56
2019-06-19 19:00:00 19.6 10 Sudoeste 25 Sudoeste 0 -- -- 54
2019-06-19 18:00:00 19.3 15 Sudoeste 31 Sudoeste 0 -- -- 57
2019-06-19 17:00:00 20.2 22 Sudoeste 33 Sudoeste 0 -- -- 52
2019-06-19 16:00:00 21.4 17 Oeste 32 Sudoeste 0 -- -- 51
2019-06-19 15:00:00 20 19 Sudoeste 28 Sudoeste 0 -- -- 54
2019-06-19 14:00:00 20 20 Sudoeste 30 Sudoeste 0 -- -- 55
2019-06-19 13:00:00 18 15 Oeste 26 Sudoeste 0 -- -- 62
2019-06-19 12:00:00 15.8 16 Sudoeste 23 Oeste 0.2 -- -- 80
2019-06-19 11:00:00 14.1 16 Sudoeste 22 Sudoeste 0 -- -- 94
2019-06-19 10:00:00 13 15 Sudoeste 23 Sudoeste 0 -- -- 94
2019-06-19 09:00:00 13.4 13 Sudoeste 17 Sudoeste 0 -- -- 88
2019-06-19 08:00:00 13.2 4 Sudoeste 11 Sudoeste 0 -- -- 88
2019-06-19 07:00:00 12.9 6 Sur 12 Sudoeste 0 -- -- 88
2019-06-19 06:00:00 13.1 6 Sudoeste 13 Sur 0 -- -- 86
2019-06-19 05:00:00 13.3 7 Sur 16 Sudoeste 0 -- -- 84
2019-06-19 04:00:00 13.8 10 Sudoeste 21 Sudoeste 0 -- -- 80
2019-06-19 03:00:00 14.6 13 Sudoeste 23 Oeste 0 -- -- 73
2019-06-19 02:00:00 15.6 13 Sudoeste 27 Sudoeste 0 -- -- 67
2019-06-19 01:00:00 16.2 18 Sudoeste 27 Sudoeste 0 -- -- 66
2019-06-19 00:00:00 16.7 12 Sudoeste 22 Sudoeste 0 -- -- 72
2019-06-18 23:00:00 17.3 14 Sudoeste 24 Sudoeste 0 -- -- 70
2019-06-18 22:00:00 17.8 12 Sudoeste 18 Sudoeste 0 -- -- 68
2019-06-18 21:00:00 18.3 14 Sudoeste 26 Sudoeste 0 -- -- 65
2019-06-18 20:00:00 19 19 Sudoeste 42 Sudoeste 0 -- -- 63
2019-06-18 19:00:00 19.6 25 Sudoeste 41 Oeste 0 -- -- 60
2019-06-18 18:00:00 20.2 28 Sudoeste 48 Sudoeste 0 -- -- 54
2019-06-18 17:00:00 19.8 28 Oeste 45 Sudoeste 0 -- -- 57
2019-06-18 16:00:00 20.1 31 Sudoeste 47 Sudoeste 0 -- -- 54
2019-06-18 15:00:00 20.8 26 Sudoeste 48 Sudoeste 0 -- -- 41
2019-06-18 14:00:00 19.9 23 Sudoeste 56 Sudoeste 0 -- -- 39
2019-06-18 13:00:00 20.4 26 Sudoeste 38 Sudoeste 0 -- -- 38
2019-06-18 12:00:00 19.4 25 Sudoeste 41 Sudoeste 0 -- -- 36
2019-06-18 11:00:00 18.1 24 Sudoeste 41 Oeste 0 -- -- 41
2019-06-18 10:00:00 16.5 24 Sudoeste 33 Sudoeste 0 -- -- 45
2019-06-18 09:00:00 14.8 10 Sudoeste 19 Sudoeste 0 -- -- 57
2019-06-18 08:00:00 12.5 6 Sudoeste 14 Sudoeste 0 -- -- 61
2019-06-18 07:00:00 12.9 8 Sudoeste 14 Sudoeste 0 -- -- 57
2019-06-18 06:00:00 13.9 7 Sudoeste 14 Sudoeste 0 -- -- 51
2019-06-18 05:00:00 15 8 Sudoeste 15 Sudoeste 0 -- -- 41
2019-06-18 04:00:00 16.3 4 Sudoeste 9 Sudoeste 0 -- -- 37
2019-06-18 03:00:00 17.3 3 Sur 14 Sudeste 0 -- -- 34
2019-06-18 02:00:00 16.9 2 Sudeste 9 Este 0 -- -- 33
2019-06-18 01:00:00 18 2 Sur 14 Este 0 -- -- 33
2019-06-18 00:00:00 18.6 7 Este 15 Nordeste 0 -- -- 33
2019-06-17 23:00:00 18.8 8 Este 14 Sudeste 0 -- -- 31
2019-06-17 22:00:00 19.7 6 Este 11 Sudeste 0 -- -- 34
2019-06-17 21:00:00 21.7 5 Sudeste 11 Sudeste 0 -- -- 29
2019-06-17 20:00:00 22.9 4 Sur 20 Oeste 0 -- -- 28
2019-06-17 19:00:00 24.6 15 Oeste 40 Sudoeste 0 -- -- 24
2019-06-17 18:00:00 26.8 23 Sudoeste 45 Sudoeste 0 -- -- 18
2019-06-17 17:00:00 24.9 20 Oeste 40 Oeste 0 -- -- 27
2019-06-17 16:00:00 25.6 17 Sudoeste 37 Oeste 0 -- -- 31
2019-06-17 15:00:00 25.6 21 Sudoeste 35 Oeste 0 -- -- 31
2019-06-17 14:00:00 24.4 20 Oeste 40 Sudoeste 0 -- -- 29
2019-06-17 13:00:00 23.6 22 Oeste 37 Oeste 0 -- -- 33
2019-06-17 12:00:00 21.5 18 Sudoeste 37 Sudoeste 0 -- -- 40
2019-06-17 11:00:00 20.2 19 Sudoeste 26 Sudoeste 0 -- -- 41
2019-06-17 10:00:00 19.4 7 Sudoeste 11 Sudoeste 0 -- -- 42
2019-06-17 09:00:00 16 6 Sudeste 15 Este 0 -- -- 50
2019-06-17 08:00:00 13.3 9 Este 14 Este 0 -- -- 56
2019-06-17 07:00:00 13.5 7 Este 12 Este 0 -- -- 53
2019-06-17 06:00:00 13.7 9 Este 14 Sudeste 0 -- -- 49
2019-06-17 05:00:00 14.2 9 Sudeste 14 Sudeste 0 -- -- 44
2019-06-17 04:00:00 14.4 7 Este 14 Este 0 -- -- 43
2019-06-17 03:00:00 14.5 10 Sudeste 14 Sudeste 0 -- -- 44
2019-06-17 02:00:00 14.6 11 Este 15 Sudeste 0 -- -- 44
2019-06-17 01:00:00 16 8 Sudeste 13 Sudeste 0 -- -- 37
2019-06-17 00:00:00 15.8 8 Este 14 Sudeste 0 -- -- 43
2019-06-16 23:00:00 16.7 8 Este 13 Nordeste 0 -- -- 42
2019-06-16 22:00:00 17.8 8 Este 13 Este 0 -- -- 42
2019-06-16 21:00:00 22.9 3 Nordeste 19 Oeste 0 -- -- 35
2019-06-16 20:00:00 24.5 9 Oeste 16 Sudoeste 0 -- -- 30
2019-06-16 19:00:00 23.7 9 Oeste 24 Oeste 0 -- -- 33
2019-06-16 18:00:00 25.4 17 Oeste 30 Sudoeste 0 -- -- 28
2019-06-16 17:00:00 25.5 17 Sudoeste 26 Sudoeste 0 -- -- 29
2019-06-16 16:00:00 24.2 14 Sudoeste 23 Sudoeste 0 -- -- 29
2019-06-16 15:00:00 22.7 12 Oeste 27 Sudoeste 0 -- -- 34
2019-06-16 14:00:00 22.6 19 Oeste 28 Sudoeste 0 -- -- 29
2019-06-16 13:00:00 21.6 13 Oeste 30 Oeste 0 -- -- 33
2019-06-16 12:00:00 21.7 14 Sudoeste 25 Sudoeste 0 -- -- 33
2019-06-16 11:00:00 20.6 12 Sudoeste 19 Sudoeste 0 -- -- 36
2019-06-16 10:00:00 18.8 2 Sur 13 Sudeste 0 -- -- 41
2019-06-16 09:00:00 14.6 11 Sudeste 16 Este 0 -- -- 51
2019-06-16 08:00:00 13 11 Sudeste 24 Nordeste 0 -- -- 50
2019-06-16 07:00:00 13.2 18 Nordeste 28 Nordeste 0 -- -- 46
2019-06-16 06:00:00 14.7 26 Nordeste 34 Nordeste 0 -- -- 41
2019-06-16 05:00:00 13.7 21 Nordeste 32 Nordeste 0 -- -- 44
2019-06-16 04:00:00 13.5 20 Nordeste 38 Nordeste 0 -- -- 45
2019-06-16 03:00:00 13.3 22 Nordeste 33 Nordeste 0 -- -- 46
2019-06-16 02:00:00 15.8 15 Este 21 Este 0 -- -- 39
2019-06-16 01:00:00 16.2 14 Este 22 Nordeste 0 -- -- 39
2019-06-16 00:00:00 14.4 15 Nordeste 21 Nordeste 0 -- -- 46
2019-06-15 23:00:00 14.3 9 Nordeste 17 Nordeste 0 -- -- 50
2019-06-15 22:00:00 15.4 7 Este 14 Nordeste 0 -- -- 50
2019-06-15 21:00:00 19 7 Nordeste 12 Oeste 0 -- -- 43
2019-06-15 20:00:00 22.3 10 Oeste 19 Oeste 0 -- -- 34
2019-06-15 19:00:00 22.6 13 Sudoeste 24 Oeste 0 -- -- 33
2019-06-15 18:00:00 22.6 14 Sudoeste 26 Sudoeste 0 -- -- 34
2019-06-15 17:00:00 22 14 Sudoeste 26 Sudoeste 0 -- -- 38
2019-06-15 16:00:00 21 18 Sudoeste 27 Oeste 0 -- -- 39
2019-06-15 15:00:00 20.1 15 Sudoeste 24 Sudoeste 0 -- -- 42
2019-06-15 14:00:00 19.1 15 Sudoeste 30 Sudoeste 0 -- -- 43
2019-06-15 13:00:00 18.2 13 Sudoeste 21 Sudoeste 0 -- -- 44
2019-06-15 12:00:00 16.6 12 Sudoeste 25 Nordeste 0 -- -- 46
2019-06-15 11:00:00 14.2 18 Nordeste 32 Nordeste 0 -- -- 54
2019-06-15 10:00:00 12.1 17 Nordeste 35 Nordeste 0 -- -- 63
2019-06-15 09:00:00 9.7 17 Este 35 Este 0 -- -- 72
2019-06-15 08:00:00 8 21 Este 33 Este 0 -- -- 78
2019-06-15 07:00:00 7.3 18 Este 30 Este 0 -- -- 80
2019-06-15 06:00:00 7.6 15 Nordeste 30 Nordeste 0 -- -- 78
2019-06-15 05:00:00 8 20 Este 29 Este 0 -- -- 75
2019-06-15 04:00:00 8.2 17 Nordeste 28 Nordeste 0 -- -- 74
2019-06-15 03:00:00 9.2 17 Este 27 Este 0 -- -- 67
2019-06-15 02:00:00 8 6 Nordeste 12 Sudeste 0 -- -- 75
2019-06-15 01:00:00 8.8 6 Este 9 Sudeste 0 -- -- 71
2019-06-15 00:00:00 10.9 5 Este 7 Sudeste 0 -- -- 63
2019-06-14 23:00:00 12.5 3 Sur 19 Sudoeste 0 -- -- 55
2019-06-14 22:00:00 13.3 12 Sudoeste 33 Sudoeste 0 -- -- 51
2019-06-14 21:00:00 14.2 14 Sudoeste 38 Sudoeste 0 -- -- 48
2019-06-14 20:00:00 15 20 Sudoeste 39 Sudoeste 0 -- -- 46
2019-06-14 19:00:00 16.7 20 Sudoeste 40 Sudoeste 0 -- -- 40
2019-06-14 18:00:00 18.3 22 Sudoeste 39 Oeste 0 -- -- 38
2019-06-14 17:00:00 18.5 25 Sudoeste 40 Sudoeste 0 -- -- 40
2019-06-14 16:00:00 18 24 Sudoeste 39 Sudoeste 0 -- -- 41
2019-06-14 15:00:00 17.6 22 Sudoeste 39 Sudoeste 0 -- -- 38
2019-06-14 14:00:00 17.1 21 Sudoeste 38 Oeste 0 -- -- 38
2019-06-14 13:00:00 16.4 22 Oeste 44 Sudoeste 0 -- -- 39
2019-06-14 12:00:00 15.9 24 Oeste 41 Oeste 0 -- -- 47
2019-06-14 11:00:00 14.2 18 Sudoeste 29 Sudoeste 0 -- -- 53
2019-06-14 10:00:00 12.6 15 Sudoeste 26 Sudoeste 0 -- -- 55
2019-06-14 09:00:00 12.8 9 Sur 16 Sudoeste 0 -- -- 46
2019-06-14 08:00:00 10.1 6 Sur 10 Sur 0 -- -- 55
2019-06-14 07:00:00 8.8 5 Sur 8 Sur 0 -- -- 58
2019-06-14 06:00:00 8.1 5 Nordeste 10 Sudeste 0 -- -- 69
2019-06-14 05:00:00 8.9 6 Sudeste 13 Este 0 -- -- 66
2019-06-14 04:00:00 9.7 5 Sudeste 22 Nordeste 0 -- -- 60
2019-06-14 03:00:00 13.2 24 Nordeste 37 Nordeste 0 -- -- 49
2019-06-14 02:00:00 13.8 23 Nordeste 40 Nordeste 0 -- -- 45
2019-06-14 01:00:00 14.2 22 Nordeste 36 Nordeste 0 -- -- 38
2019-06-14 00:00:00 13 9 Nordeste 13 Nordeste 0 -- -- 44
2019-06-13 23:00:00 14.7 7 Sudeste 12 Sudeste 0 -- -- 40
2019-06-13 22:00:00 17 4 Sudeste 10 Sudeste 0 -- -- 34
2019-06-13 21:00:00 20.3 8 Noroeste 27 Sudoeste 0 -- -- 28
2019-06-13 20:00:00 21.9 18 Oeste 33 Sudoeste 0 -- -- 24
2019-06-13 19:00:00 22.9 19 Oeste 40 Sudoeste 0 -- -- 21
2019-06-13 18:00:00 22.6 20 Sudoeste 42 Sudoeste 0 -- -- 22
2019-06-13 17:00:00 22.1 17 Sudoeste 42 Sudoeste 0 -- -- 23
2019-06-13 16:00:00 21.6 19 Sudoeste 39 Sudoeste 0 -- -- 26
2019-06-13 15:00:00 20.8 23 Sudoeste 41 Oeste 0 -- -- 25
2019-06-13 14:00:00 20 22 Oeste 42 Oeste 0 -- -- 25
2019-06-13 13:00:00 19.1 22 Oeste 39 Oeste 0 -- -- 26
2019-06-13 12:00:00 17.8 23 Oeste 39 Oeste 0 -- -- 25
2019-06-13 11:00:00 15.2 18 Sudoeste 29 Sudoeste 0 -- -- 41
2019-06-13 10:00:00 14.5 15 Sudoeste 22 Sudoeste 0 -- -- 42
2019-06-13 09:00:00 12.5 6 Sur 10 Sudeste 0 -- -- 46
2019-06-13 08:00:00 8.8 3 Sudeste 9 Nordeste 0 -- -- 46
2019-06-13 07:00:00 8 3 Este 12 Sur 0 -- -- 49
2019-06-13 06:00:00 11.5 9 Sur 15 Sudoeste 0 -- -- 37
2019-06-13 05:00:00 11.5 4 Sudoeste 9 Sur 0 -- -- 40
2019-06-13 04:00:00 11 3 Este 15 Sudeste 0 -- -- 41
2019-06-13 03:00:00 11.4 10 Nordeste 22 Nordeste 0 -- -- 40
2019-06-13 02:00:00 13.5 12 Nordeste 33 Nordeste 0 -- -- 36
2019-06-13 01:00:00 14.3 24 Nordeste 31 Nordeste 0 -- -- 32
2019-06-13 00:00:00 12.5 9 Este 13 Este 0 -- -- 37
2019-06-12 23:00:00 13.1 9 Este 13 Sudeste 0 -- -- 38
2019-06-12 22:00:00 14.4 9 Sudeste 13 Sudeste 0 -- -- 38
2019-06-12 21:00:00 19.4 2 Noroeste 21 Sudoeste 0 -- -- 31
2019-06-12 20:00:00 21.6 15 Oeste 29 Sudoeste 0 -- -- 26
2019-06-12 19:00:00 22.2 16 Sudoeste 25 Noroeste 0 -- -- 24
2019-06-12 18:00:00 21.5 17 Sudoeste 31 Oeste 0 -- -- 25
2019-06-12 17:00:00 21 15 Sudoeste 27 Sudoeste 0 -- -- 26
2019-06-12 16:00:00 20.6 14 Oeste 32 Oeste 0 -- -- 29
2019-06-12 15:00:00 19.9 15 Oeste 29 Sudoeste 0 -- -- 28
2019-06-12 14:00:00 18.8 16 Sudoeste 31 Sudoeste 0 -- -- 30
2019-06-12 13:00:00 18.4 14 Sudoeste 28 Oeste 0 -- -- 32
2019-06-12 12:00:00 17.1 18 Sudoeste 27 Sudoeste 0 -- -- 36
2019-06-12 11:00:00 15.8 12 Sudoeste 15 Sudoeste 0 -- -- 37
2019-06-12 10:00:00 13.4 5 Nordeste 28 Nordeste 0 -- -- 43
2019-06-12 09:00:00 9.9 19 Nordeste 37 Nordeste 0 -- -- 54
2019-06-12 08:00:00 7.8 23 Nordeste 37 Nordeste 0 -- -- 56
2019-06-12 07:00:00 7.3 22 Nordeste 43 Nordeste 0 -- -- 59
2019-06-12 06:00:00 7.7 24 Nordeste 40 Nordeste 0 -- -- 56
2019-06-12 05:00:00 8.8 25 Nordeste 39 Nordeste 0 -- -- 48
2019-06-12 04:00:00 9 24 Nordeste 40 Nordeste 0 -- -- 46
2019-06-12 03:00:00 9.9 14 Nordeste 21 Nordeste 0 -- -- 44
2019-06-12 02:00:00 11.5 12 Este 26 Este 0 -- -- 38
2019-06-12 01:00:00 11.8 17 Este 24 Este 0 -- -- 38
2019-06-12 00:00:00 11.8 15 Este 21 Este 0 -- -- 37
2019-06-11 23:00:00 12 16 Este 24 Nordeste 0 -- -- 36
2019-06-11 22:00:00 12.8 9 Este 19 Este 0 -- -- 38
2019-06-11 21:00:00 15.5 6 Nordeste 33 Nordeste 0 -- -- 30
2019-06-11 20:00:00 17.3 12 Nordeste 35 Este 0 -- -- 27
2019-06-11 19:00:00 17.5 16 Nordeste 36 Nordeste 0 -- -- 25
2019-06-11 18:00:00 17.3 19 Nordeste 48 Nordeste 0 -- -- 28
2019-06-11 17:00:00 17 21 Nordeste 45 Nordeste 0 -- -- 30
2019-06-11 16:00:00 16.6 15 Nordeste 44 Nordeste 0 -- -- 33
2019-06-11 15:00:00 14.9 23 Nordeste 41 Nordeste 0 -- -- 39
2019-06-11 14:00:00 14.3 19 Nordeste 37 Nordeste 0 -- -- 45
2019-06-11 13:00:00 13.7 21 Nordeste 41 Nordeste 0 -- -- 50
2019-06-11 12:00:00 13.6 20 Este 37 Nordeste 0 -- -- 54
2019-06-11 11:00:00 12.8 18 Este 32 Nordeste 0 -- -- 60
2019-06-11 10:00:00 11.3 18 Nordeste 38 Este 0 -- -- 65
2019-06-11 09:00:00 10.4 22 Nordeste 38 Nordeste 0 -- -- 70
2019-06-11 08:00:00 10.3 27 Este 41 Nordeste 0 -- -- 70
2019-06-11 07:00:00 10.3 21 Este 39 Este 0 -- -- 69
2019-06-11 06:00:00 10.8 21 Este 46 Este 0 -- -- 66
2019-06-11 05:00:00 11.4 21 Este 41 Este 0 -- -- 63
2019-06-11 04:00:00 12.1 19 Este 36 Este 0 -- -- 64
2019-06-11 03:00:00 12.6 16 Nordeste 34 Este 0 -- -- 63
2019-06-11 02:00:00 13.4 18 Nordeste 36 Este 0 -- -- 59
2019-06-11 01:00:00 13.9 17 Nordeste 31 Nordeste 0 -- -- 53
2019-06-11 00:00:00 16 18 Este 29 Este 0 -- -- 37
2019-06-10 23:00:00 16.5 15 Este 29 Este 0 -- -- 34
2019-06-10 22:00:00 17.1 14 Este 21 Noroeste 0 -- -- 33
2019-06-10 21:00:00 19.4 11 Noroeste 27 Oeste 0 -- -- 30
2019-06-10 20:00:00 23.1 14 Oeste 26 Sudoeste 0 -- -- 27
2019-06-10 19:00:00 23.9 15 Sudoeste 30 Sudoeste 0 -- -- 28
2019-06-10 18:00:00 23.8 11 Oeste 24 Sudoeste 0 -- -- 32
2019-06-10 17:00:00 23.8 14 Sudoeste 28 Sudoeste 0 -- -- 35
2019-06-10 16:00:00 22.5 11 Oeste 23 Sudoeste 0 -- -- 34
2019-06-10 15:00:00 21.8 8 Nordeste 20 Norte 0 -- -- 37
2019-06-10 14:00:00 20.6 7 Norte 20 Nordeste 0 -- -- 39
2019-06-10 13:00:00 18.7 11 Este 23 Nordeste 0 -- -- 42
2019-06-10 12:00:00 17.6 16 Nordeste 27 Nordeste 0 -- -- 45
2019-06-10 11:00:00 16.6 15 Nordeste 32 Nordeste 0 -- -- 51
2019-06-10 10:00:00 14 20 Este 42 Este 0 -- -- 62
2019-06-10 09:00:00 11.5 22 Este 41 Este 0 -- -- 69
2019-06-10 08:00:00 10.6 19 Este 38 Este 0 -- -- 69
2019-06-10 07:00:00 10 23 Este 35 Este 0 -- -- 71
2019-06-10 06:00:00 10.8 21 Este 39 Este 0 -- -- 68
2019-06-10 05:00:00 10.1 20 Este 34 Este 0 -- -- 72
2019-06-10 04:00:00 11.9 20 Este 36 Este 0 -- -- 64
2019-06-10 03:00:00 12.4 16 Este 30 Nordeste 0 -- -- 63
2019-06-10 02:00:00 13.2 19 Este 34 Este 0 -- -- 61
2019-06-10 01:00:00 13.7 19 Este 30 Este 0 -- -- 58
2019-06-10 00:00:00 14.2 12 Este 28 Este 0 -- -- 53
2019-06-09 23:00:00 15.2 22 Este 38 Sudeste 0 -- -- 47
2019-06-09 22:00:00 15.6 15 Este 24 Este 0 -- -- 46
2019-06-09 21:00:00 17.2 3 Este 21 Oeste 0 -- -- 46
2019-06-09 20:00:00 20 7 Oeste 31 Oeste 0 -- -- 37
2019-06-09 19:00:00 21.4 17 Oeste 32 Sudoeste 0 -- -- 32
2019-06-09 18:00:00 21.8 17 Sudoeste 32 Sudoeste 0 -- -- 36
2019-06-09 17:00:00 22.1 16 Sudoeste 29 Oeste 0 -- -- 38
2019-06-09 16:00:00 21.7 16 Oeste 33 Oeste 0 -- -- 35
2019-06-09 15:00:00 21.4 14 Sudoeste 28 Sudoeste 0 -- -- 35
2019-06-09 14:00:00 20.4 17 Sudoeste 24 Sudoeste 0 -- -- 37
2019-06-09 13:00:00 18.9 12 Sudoeste 22 Oeste 0 -- -- 36
2019-06-09 12:00:00 17.7 10 Sudoeste 15 Sudoeste 0 -- -- 34
2019-06-09 11:00:00 16.8 12 Sudoeste 23 Nordeste 0 -- -- 41
2019-06-09 10:00:00 14.7 17 Nordeste 22 Nordeste 0 -- -- 51
2019-06-09 09:00:00 11.4 9 Sudeste 12 Sudeste 0 -- -- 49
2019-06-09 08:00:00 10.6 6 Sudeste 13 Sudeste 0 -- -- 43
2019-06-09 07:00:00 11.3 10 Sudeste 13 Sudeste 0 -- -- 40
2019-06-09 06:00:00 11.5 4 Sudeste 10 Este 0 -- -- 50
2019-06-09 05:00:00 11.5 7 Sudeste 22 Nordeste 0 -- -- 52
2019-06-09 04:00:00 12.5 17 Nordeste 30 Nordeste 0 -- -- 51
2019-06-09 03:00:00 14.2 24 Nordeste 34 Nordeste 0 -- -- 44
2019-06-09 02:00:00 14.8 24 Nordeste 32 Este 0 -- -- 37
2019-06-09 01:00:00 12.8 8 Nordeste 15 Nordeste 0 -- -- 45
2019-06-09 00:00:00 13.5 8 Este 13 Sudeste 0 -- -- 46
2019-06-08 23:00:00 15.2 6 Este 13 Sudeste 0 -- -- 41
2019-06-08 22:00:00 16.4 8 Este 13 Este 0 -- -- 39
2019-06-08 21:00:00 19 4 Sur 11 Sur 0 -- -- 40
2019-06-08 20:00:00 20.9 6 Sudoeste 18 Oeste 0 -- -- 33
2019-06-08 19:00:00 21.2 10 Sudoeste 27 Sudoeste 0 -- -- 30
2019-06-08 18:00:00 23 17 Oeste 33 Oeste 0 -- -- 28
2019-06-08 17:00:00 23.1 22 Oeste 35 Oeste 0 -- -- 27
2019-06-08 16:00:00 22.4 16 Oeste 28 Oeste 0 -- -- 32
2019-06-08 15:00:00 21.7 20 Oeste 29 Oeste 0 -- -- 31
2019-06-08 14:00:00 20.8 16 Oeste 27 Sudoeste 0 -- -- 31
2019-06-08 13:00:00 20.5 13 Sudoeste 22 Sudoeste 0 -- -- 33
2019-06-08 12:00:00 18.3 8 Oeste 19 Sudoeste 0 -- -- 45
2019-06-08 11:00:00 17.7 8 Sudoeste 21 Sudoeste 0 -- -- 44
2019-06-08 10:00:00 14.9 14 Nordeste 26 Nordeste 0 -- -- 46
2019-06-08 09:00:00 12.8 13 Nordeste 32 Este 0 -- -- 50
2019-06-08 08:00:00 11 22 Nordeste 38 Nordeste 0 -- -- 49
2019-06-08 07:00:00 8.6 31 Nordeste 53 Este 0 -- -- 57
2019-06-08 06:00:00 10.4 22 Este 37 Nordeste 0 -- -- 52
2019-06-08 05:00:00 9.9 28 Nordeste 44 Nordeste 0 -- -- 53
2019-06-08 04:00:00 10.4 19 Este 32 Este 0 -- -- 53
2019-06-08 03:00:00 10.8 20 Este 35 Este 0 -- -- 50
2019-06-08 02:00:00 10.7 21 Este 37 Este 0 -- -- 50
2019-06-08 01:00:00 11 18 Este 29 Nordeste 0 -- -- 50
2019-06-08 00:00:00 10.1 24 Nordeste 31 Nordeste 0 -- -- 55
2019-06-07 23:00:00 10.7 18 Nordeste 26 Nordeste 0 -- -- 55
2019-06-07 22:00:00 13 13 Este 24 Nordeste 0 -- -- 48
2019-06-07 21:00:00 14.7 13 Este 23 Este 0 -- -- 46
2019-06-07 20:00:00 16.1 9 Nordeste 19 Nordeste 0 -- -- 46
2019-06-07 19:00:00 17.4 9 Nordeste 20 Nordeste 0 -- -- 42
2019-06-07 18:00:00 17.3 6 Noroeste 26 Nordeste 0 -- -- 43
2019-06-07 17:00:00 18.6 9 Oeste 21 Oeste 0 -- -- 42
2019-06-07 16:00:00 17.5 8 Noroeste 24 Oeste 0 -- -- 41
2019-06-07 15:00:00 16.2 9 Oeste 24 Nordeste 0 -- -- 43
2019-06-07 14:00:00 14.6 12 Nordeste 25 Nordeste 0 -- -- 46
2019-06-07 13:00:00 13.5 12 Nordeste 25 Nordeste 0 -- -- 52
2019-06-07 12:00:00 12 12 Nordeste 31 Este 0 -- -- 54
2019-06-07 11:00:00 10.2 18 Este 37 Nordeste 0 -- -- 62
2019-06-07 10:00:00 8.8 17 Este 36 Nordeste 0 -- -- 64
2019-06-07 09:00:00 7.5 19 Este 34 Este 0 -- -- 71
2019-06-07 08:00:00 5.3 17 Nordeste 32 Este 0 -- -- 77
2019-06-07 07:00:00 4.3 12 Este 21 Este 0 -- -- 80
2019-06-07 06:00:00 4.7 11 Sudeste 21 Nordeste 0 -- -- 83
2019-06-07 05:00:00 4.8 9 Este 17 Sudeste 0 -- -- 86
2019-06-07 04:00:00 6.4 10 Sur 26 Sur 0 -- -- 74
2019-06-07 03:00:00 8.3 16 Sudoeste 30 Sudoeste 0 -- -- 96
2019-06-07 02:00:00 9.1 22 Sudoeste 35 Sudoeste 0.2 -- -- 96
2019-06-07 01:00:00 9.8 22 Sudoeste 46 Sudoeste 0.6 -- -- 95
2019-06-07 00:00:00 10.7 28 Sudoeste 45 Oeste 3.6 -- -- 96
2019-06-06 23:00:00 10.7 26 Sudoeste 44 Sudoeste 2 -- -- 93
2019-06-06 22:00:00 11.2 16 Sudoeste 40 Sudoeste 1 -- -- 87
2019-06-06 21:00:00 13.2 24 Sudoeste 50 Oeste 0 -- -- 70
2019-06-06 20:00:00 15.4 26 Sudoeste 48 Sudoeste 0 -- -- 49
2019-06-06 19:00:00 15.8 33 Sudoeste 56 Sudoeste 0 -- -- 46
2019-06-06 18:00:00 15.9 28 Sudoeste 60 Oeste 0 -- -- 46
2019-06-06 17:00:00 15.9 32 Sudoeste 55 Oeste 0 -- -- 44
2019-06-06 16:00:00 17.3 26 Sudoeste 53 Oeste 0 -- -- 39
2019-06-06 15:00:00 16.1 23 Sudoeste 46 Sudoeste 0 -- -- 38
2019-06-06 14:00:00 16.1 23 Sudoeste 38 Sudoeste 0 -- -- 41
2019-06-06 13:00:00 14.8 21 Sudoeste 35 Sudoeste 0 -- -- 44
2019-06-06 12:00:00 14 22 Oeste 33 Sudoeste 0 -- -- 48
2019-06-06 11:00:00 11.9 18 Sudoeste 27 Sudoeste 0 -- -- 57
2019-06-06 10:00:00 10.9 8 Sudoeste 17 Sudoeste 0 -- -- 57
2019-06-06 09:00:00 9.2 9 Este 26 Nordeste 0 -- -- 62
2019-06-06 08:00:00 6.9 20 Nordeste 32 Nordeste 0 -- -- 68
2019-06-06 07:00:00 7 19 Nordeste 31 Este 0 -- -- 67
2019-06-06 06:00:00 7.5 19 Nordeste 31 Nordeste 0 -- -- 66
2019-06-06 05:00:00 7.8 22 Nordeste 31 Nordeste 0 -- -- 65
2019-06-06 04:00:00 8.5 21 Este 35 Este 0 -- -- 63
2019-06-06 03:00:00 8.3 23 Nordeste 35 Este 0 -- -- 64
2019-06-06 02:00:00 8.9 23 Este 33 Este 0 -- -- 61
2019-06-06 01:00:00 9.3 19 Nordeste 27 Nordeste 0 -- -- 60
2019-06-06 00:00:00 10.6 17 Este 24 Nordeste 0 -- -- 57
2019-06-05 23:00:00 10.2 6 Este 14 Nordeste 0 -- -- 59
2019-06-05 22:00:00 13.2 6 Sudeste 18 Sudoeste 0 -- -- 47
2019-06-05 21:00:00 14.6 11 Sudoeste 20 Sudoeste 0 -- -- 41
2019-06-05 20:00:00 15.4 10 Sudoeste 30 Oeste 0 -- -- 40
2019-06-05 19:00:00 17.2 17 Oeste 31 Sudoeste 0 -- -- 35
2019-06-05 18:00:00 17.2 20 Sudoeste 33 Sudoeste 0 -- -- 36
2019-06-05 17:00:00 18.1 24 Sudoeste 40 Sudoeste 0 -- -- 35
2019-06-05 16:00:00 15.7 24 Oeste 40 Sudoeste 0 -- -- 37
2019-06-05 15:00:00 16.4 21 Sudoeste 40 Sudoeste 0 -- -- 42
2019-06-05 14:00:00 16.5 13 Oeste 30 Sudoeste 0 -- -- 37
2019-06-05 13:00:00 14.6 13 Norte 30 Norte 0 -- -- 38
2019-06-05 12:00:00 13.6 11 Nordeste 26 Este 0 -- -- 44
2019-06-05 11:00:00 11.5 13 Este 27 Este 0 -- -- 52
2019-06-05 10:00:00 9.3 12 Nordeste 29 Sudeste 0 -- -- 61
2019-06-05 09:00:00 8.8 13 Este 37 Este 0 -- -- 62
2019-06-05 08:00:00 8.2 20 Este 36 Nordeste 0 -- -- 64
2019-06-05 07:00:00 8.6 13 Este 33 Este 0 -- -- 66
2019-06-05 06:00:00 8.8 21 Este 38 Este 0 -- -- 67
2019-06-05 05:00:00 9.8 15 Nordeste 29 Este 0 -- -- 63
2019-06-05 04:00:00 10.3 18 Este 37 Este 0 -- -- 63
2019-06-05 03:00:00 10.7 20 Este 36 Este 0 -- -- 67
2019-06-05 02:00:00 11.5 19 Este 33 Nordeste 0 -- -- 61
2019-06-05 01:00:00 12.6 10 Este 16 Este 0 -- -- 71
2019-06-05 00:00:00 13.6 3 Noroeste 16 Sudoeste 0 -- -- 66
2019-06-04 23:00:00 14.4 3 Noroeste 20 Sudoeste 0 -- -- 70
2019-06-04 22:00:00 15.1 7 Sudoeste 19 Sudoeste 0 -- -- 69
2019-06-04 21:00:00 16.5 16 Sudoeste 27 Sudoeste 0 -- -- 64
2019-06-04 20:00:00 17.9 21 Sudoeste 39 Sudoeste 0 -- -- 60
2019-06-04 19:00:00 19.2 27 Sudoeste 42 Sudoeste 0 -- -- 52
2019-06-04 18:00:00 20 26 Sudoeste 38 Sudoeste 0 -- -- 48
2019-06-04 17:00:00 22 26 Sudoeste 42 Sudoeste 0 -- -- 44
2019-06-04 16:00:00 21.1 30 Sudoeste 47 Sudoeste 0 -- -- 46
2019-06-04 15:00:00 21.1 27 Sudoeste 39 Oeste 0 -- -- 47
2019-06-04 14:00:00 19.7 23 Sudoeste 34 Sudoeste 0 -- -- 58
2019-06-04 13:00:00 18.9 25 Sudoeste 36 Sudoeste 0 -- -- 63
2019-06-04 12:00:00 17.8 21 Sudoeste 29 Sudoeste 0 -- -- 69
2019-06-04 11:00:00 15.8 10 Sudoeste 14 Sudoeste 0 -- -- 74
2019-06-04 10:00:00 13.6 6 Sudoeste 15 Oeste 0 -- -- 84
2019-06-04 09:00:00 13 8 Sudoeste 12 Sudoeste 0 -- -- 86
2019-06-04 08:00:00 12.6 4 Sudoeste 10 Sur 0 -- -- 86
2019-06-04 07:00:00 13.1 8 Sudoeste 12 Sur 0 -- -- 81
2019-06-04 06:00:00 13.4 5 Sudeste 8 Sudeste 0 -- -- 82
2019-06-04 05:00:00 13.9 6 Sudeste 10 Sudeste 0 -- -- 80
2019-06-04 04:00:00 14.8 4 Sur 13 Sur 0 -- -- 76
2019-06-04 03:00:00 16 6 Sur 9 Sur 0 -- -- 69
2019-06-04 02:00:00 16.2 2 Sudeste 8 Sur 0 -- -- 64
2019-06-04 01:00:00 16.8 3 Sudeste 6 Este 0 -- -- 62
2019-06-04 00:00:00 18.3 0 Calma 9 Sudoeste 0 -- -- 59
2019-06-03 23:00:00 19.8 5 Sudoeste 12 Sur 0 -- -- 48
2019-06-03 22:00:00 21.3 4 Sur 16 Sur 0 -- -- 39
2019-06-03 21:00:00 23.9 12 Sudoeste 26 Sur 0 -- -- 31
2019-06-03 20:00:00 26.4 20 Sudoeste 39 Sudoeste 0 -- -- 26
2019-06-03 19:00:00 27.5 23 Sudoeste 38 Sudoeste 0 -- -- 22
2019-06-03 18:00:00 27.9 24 Sudoeste 41 Sudoeste 0 -- -- 21
2019-06-03 17:00:00 28 24 Oeste 41 Oeste 0 -- -- 21
2019-06-03 16:00:00 26.9 24 Sudoeste 37 Sudoeste 0 -- -- 23
2019-06-03 15:00:00 26.2 24 Sudoeste 33 Oeste 0 -- -- 23
2019-06-03 14:00:00 25.6 22 Sudoeste 37 Sudoeste 0 -- -- 30
2019-06-03 13:00:00 24.4 22 Sudoeste 39 Sudoeste 0 -- -- 32
2019-06-03 12:00:00 23.3 22 Sudoeste 30 Sudoeste 0 -- -- 34
2019-06-03 11:00:00 21.9 12 Sudoeste 17 Sudoeste 0 -- -- 36
2019-06-03 10:00:00 19.8 6 Nordeste 14 Nordeste 0 -- -- 43
2019-06-03 09:00:00 17.8 4 Este 12 Sudeste 0 -- -- 49
2019-06-03 08:00:00 17.8 11 Nordeste 24 Este 0 -- -- 33
2019-06-03 07:00:00 18.2 11 Este 18 Nordeste 0 -- -- 29
2019-06-03 06:00:00 18.5 10 Este 28 Nordeste 0 -- -- 31
2019-06-03 05:00:00 18.9 19 Nordeste 27 Nordeste 0 -- -- 38
2019-06-03 04:00:00 19.4 16 Nordeste 23 Nordeste 0 -- -- 35
2019-06-03 03:00:00 19.4 15 Nordeste 22 Nordeste 0 -- -- 40
2019-06-03 02:00:00 20.2 15 Nordeste 28 Este 0 -- -- 38
2019-06-03 01:00:00 20.8 18 Este 30 Este 0 -- -- 37
2019-06-03 00:00:00 19.8 8 Este 14 Nordeste 0 -- -- 41
2019-06-02 23:00:00 21.4 6 Este 15 Sudeste 0 -- -- 36
2019-06-02 22:00:00 23.1 9 Sudeste 15 Sudeste 0 -- -- 33
2019-06-02 21:00:00 23.3 6 Este 13 Este 0 -- -- 37
2019-06-02 20:00:00 25.4 7 Nordeste 12 Nordeste 0 -- -- 44
2019-06-02 19:00:00 27.8 4 Noroeste 18 Sudoeste 0 -- -- 34
2019-06-02 18:00:00 28.3 14 Sudoeste 24 Sudoeste 0 -- -- 28
2019-06-02 17:00:00 29.3 17 Sudoeste 33 Sudoeste 0 -- -- 28
2019-06-02 16:00:00 29.6 17 Sudoeste 30 Sudoeste 0 -- -- 30
2019-06-02 15:00:00 28.8 19 Sudoeste 26 Sudoeste 0 -- -- 31
2019-06-02 14:00:00 28.1 17 Sudoeste 25 Oeste 0 -- -- 34
2019-06-02 13:00:00 27.1 8 Sudoeste 15 Sudoeste 0 -- -- 36
2019-06-02 12:00:00 26 7 Sudoeste 13 Oeste 0 -- -- 36
2019-06-02 11:00:00 25.1 6 Sudoeste 9 Oeste 0 -- -- 39
2019-06-02 10:00:00 24.2 2 Sudeste 20 Este 0 -- -- 43
2019-06-02 09:00:00 21.8 14 Este 30 Nordeste 0 -- -- 39
2019-06-02 08:00:00 20.1 15 Este 33 Nordeste 0 -- -- 41
2019-06-02 07:00:00 20.2 22 Este 37 Nordeste 0 -- -- 41
2019-06-02 06:00:00 19.5 20 Nordeste 30 Nordeste 0 -- -- 43
2019-06-02 05:00:00 21.6 20 Este 32 Este 0 -- -- 37
2019-06-02 04:00:00 21.5 19 Este 34 Este 0 -- -- 38
2019-06-02 03:00:00 19.8 22 Nordeste 37 Nordeste 0 -- -- 42
2019-06-02 02:00:00 20.9 20 Nordeste 31 Este 0 -- -- 40
2019-06-02 01:00:00 22 21 Este 42 Nordeste 0 -- -- 32
2019-06-02 00:00:00 21 10 Nordeste 19 Nordeste 0 -- -- 36
2019-06-01 23:00:00 20.7 8 Este 13 Nordeste 0 -- -- 39
2019-06-01 22:00:00 21.3 8 Este 13 Nordeste 0 -- -- 38
2019-06-01 21:00:00 23.8 9 Nordeste 13 Nordeste 0 -- -- 39
2019-06-01 20:00:00 28 5 Norte 19 Oeste 0 -- -- 34
2019-06-01 19:00:00 29.9 13 Oeste 22 Sudoeste 0 -- -- 26
2019-06-01 18:00:00 29.9 12 Sudoeste 26 Sudoeste 0 -- -- 27
2019-06-01 17:00:00 29.8 17 Sudoeste 28 Sudoeste 0 -- -- 27
2019-06-01 16:00:00 29.2 16 Sudoeste 28 Sudoeste 0 -- -- 29
2019-06-01 15:00:00 28.5 15 Sudoeste 24 Sudoeste 0 -- -- 29
2019-06-01 14:00:00 28 12 Sudoeste 20 Sudoeste 0 -- -- 32
2019-06-01 13:00:00 26.8 10 Sudoeste 15 Sur 0 -- -- 29
2019-06-01 12:00:00 25.7 6 Sudoeste 10 Sudoeste 0 -- -- 29
2019-06-01 11:00:00 24.7 7 Sudoeste 10 Sudoeste 0 -- -- 35
2019-06-01 10:00:00 22.1 5 Sudeste 17 Este 0 -- -- 48
2019-06-01 09:00:00 18.2 9 Sudeste 13 Sudeste 0 -- -- 49
2019-06-01 08:00:00 16.9 9 Sudeste 14 Sudeste 0 -- -- 51
2019-06-01 07:00:00 17 10 Sudeste 13 Sudeste 0 -- -- 48
2019-06-01 06:00:00 17.6 10 Este 17 Nordeste 0 -- -- 45
2019-06-01 05:00:00 18.2 8 Este 22 Nordeste 0 -- -- 41
2019-06-01 04:00:00 18.3 9 Sudeste 14 Sudeste 0 -- -- 40
2019-06-01 03:00:00 18.6 6 Sudeste 14 Sudeste 0 -- -- 40
2019-06-01 02:00:00 18.8 12 Este 17 Nordeste 0 -- -- 41
2019-06-01 01:00:00 18.9 10 Este 15 Este 0 -- -- 43
2019-06-01 00:00:00 19.3 12 Este 16 Nordeste 0 -- -- 39
2019-05-31 23:00:00 19.9 11 Nordeste 18 Este 0 -- -- 45
2019-05-31 22:00:00 21 9 Este 16 Nordeste 0 -- -- 46
2019-05-31 21:00:00 23.8 11 Nordeste 15 Nordeste 0 -- -- 40
2019-05-31 20:00:00 28.9 5 Noroeste 19 Sudoeste 0 -- -- 32
2019-05-31 19:00:00 30 11 Sudoeste 20 Sudoeste 0 -- -- 27
2019-05-31 18:00:00 29.7 14 Sudoeste 22 Sudoeste 0 -- -- 27
2019-05-31 17:00:00 29.5 18 Sudoeste 32 Sudoeste 0 -- -- 28
2019-05-31 16:00:00 28.7 12 Sudoeste 23 Sudoeste 0 -- -- 29
2019-05-31 15:00:00 27.8 15 Sudoeste 24 Sudoeste 0 -- -- 30
2019-05-31 14:00:00 27.2 12 Sudoeste 24 Sudoeste 0 -- -- 31
2019-05-31 13:00:00 26 10 Sudoeste 18 Sudoeste 0 -- -- 34
2019-05-31 12:00:00 24.9 9 Sudoeste 14 Sudoeste 0 -- -- 35
2019-05-31 11:00:00 24.5 5 Este 21 Nordeste 0 -- -- 29
2019-05-31 10:00:00 21.3 16 Nordeste 35 Nordeste 0 -- -- 37
2019-05-31 09:00:00 18.8 25 Nordeste 34 Nordeste 0 -- -- 36
2019-05-31 08:00:00 16.3 23 Nordeste 33 Nordeste 0 -- -- 41
2019-05-31 07:00:00 16.2 20 Nordeste 33 Nordeste 0 -- -- 39
2019-05-31 06:00:00 18.5 26 Nordeste 34 Nordeste 0 -- -- 34
2019-05-31 05:00:00 18.5 23 Nordeste 45 Este 0 -- -- 34
2019-05-31 04:00:00 18.9 24 Nordeste 37 Nordeste 0 -- -- 32
2019-05-31 03:00:00 18.2 20 Nordeste 28 Este 0 -- -- 34
2019-05-31 02:00:00 20.5 21 Este 30 Este 0 -- -- 28
2019-05-31 01:00:00 21 16 Este 22 Este 0 -- -- 27
2019-05-31 00:00:00 20.2 14 Este 18 Nordeste 0 -- -- 29
2019-05-30 23:00:00 18.4 8 Nordeste 17 Este 0 -- -- 39
2019-05-30 22:00:00 18.9 9 Este 14 Nordeste 0 -- -- 53
2019-05-30 21:00:00 22 10 Nordeste 13 Norte 0 -- -- 48
2019-05-30 20:00:00 27.2 8 Oeste 21 Sudoeste 0 -- -- 34
2019-05-30 19:00:00 27.8 12 Sudoeste 24 Oeste 0 -- -- 33
2019-05-30 18:00:00 28.1 11 Sudoeste 21 Sudoeste 0 -- -- 34
2019-05-30 17:00:00 27.1 10 Sudoeste 20 Oeste 0 -- -- 35
2019-05-30 16:00:00 26.4 13 Sudoeste 21 Sudoeste 0 -- -- 37
2019-05-30 15:00:00 25.2 15 Sudoeste 24 Sudoeste 0 -- -- 37
2019-05-30 14:00:00 24.6 20 Sudoeste 26 Oeste 0 -- -- 36
2019-05-30 13:00:00 23.6 15 Sudoeste 25 Sudoeste 0 -- -- 36
2019-05-30 12:00:00 23.9 6 Nordeste 22 Nordeste 0 -- -- 29
2019-05-30 11:00:00 20.9 13 Nordeste 26 Este 0 -- -- 36
2019-05-30 10:00:00 18 18 Este 32 Nordeste 0 -- -- 40
2019-05-30 09:00:00 16.9 21 Nordeste 45 Este 0 -- -- 41
2019-05-30 08:00:00 15.5 23 Este 33 Este 0 -- -- 41
2019-05-30 07:00:00 16.7 19 Este 32 Este 0 -- -- 38
2019-05-30 06:00:00 16.5 20 Este 29 Este 0 -- -- 40
2019-05-30 05:00:00 16.6 18 Este 30 Este 0 -- -- 37
2019-05-30 04:00:00 16.7 21 Este 32 Este 0 -- -- 35
2019-05-30 03:00:00 17.1 21 Este 30 Este 0 -- -- 32
2019-05-30 02:00:00 17 21 Este 32 Este 0 -- -- 33
2019-05-30 01:00:00 16.5 23 Este 41 Este 0 -- -- 36
2019-05-30 00:00:00 16.6 20 Este 34 Este 0 -- -- 42
2019-05-29 23:00:00 17.6 19 Este 45 Este 0 -- -- 40
2019-05-29 22:00:00 18.9 22 Este 37 Este 0 -- -- 38
2019-05-29 21:00:00 20.3 13 Este 34 Nordeste 0 -- -- 36
2019-05-29 20:00:00 23.2 11 Nordeste 36 Norte 0 -- -- 31
2019-05-29 19:00:00 23.4 19 Nordeste 38 Nordeste 0 -- -- 31
2019-05-29 18:00:00 23.8 18 Nordeste 36 Nordeste 0 -- -- 30
2019-05-29 17:00:00 24 18 Nordeste 42 Nordeste 0 -- -- 27
2019-05-29 16:00:00 23.4 21 Nordeste 36 Este 0 -- -- 30
2019-05-29 15:00:00 23 17 Este 37 Nordeste 0 -- -- 35
2019-05-29 14:00:00 21.7 17 Nordeste 31 Nordeste 0 -- -- 35
2019-05-29 13:00:00 20.6 17 Nordeste 30 Nordeste 0 -- -- 36
2019-05-29 12:00:00 19.2 15 Este 32 Sudeste 0 -- -- 40
2019-05-29 11:00:00 16.7 21 Este 36 Nordeste 0 -- -- 43
2019-05-29 10:00:00 14.1 24 Nordeste 46 Este 0 -- -- 53
2019-05-29 09:00:00 11.7 28 Este 43 Nordeste 0 -- -- 55
2019-05-29 08:00:00 11.6 22 Este 42 Este 0 -- -- 53
2019-05-29 07:00:00 12.1 18 Este 37 Este 0 -- -- 51
2019-05-29 06:00:00 11.7 24 Este 39 Este 0 -- -- 53
2019-05-29 05:00:00 11.5 27 Este 36 Nordeste 0 -- -- 54
2019-05-29 04:00:00 11.6 26 Nordeste 35 Nordeste 0 -- -- 55
2019-05-29 03:00:00 13.5 22 Este 33 Este 0 -- -- 48
2019-05-29 02:00:00 15.3 15 Este 30 Este 0 -- -- 42
2019-05-29 01:00:00 15.8 18 Este 24 Este 0 -- -- 41
2019-05-29 00:00:00 16 13 Este 23 Este 0 -- -- 40
2019-05-28 23:00:00 15.9 18 Este 31 Nordeste 0 -- -- 40
2019-05-28 22:00:00 17.5 18 Este 33 Nordeste 0 -- -- 36
2019-05-28 21:00:00 19.1 12 Nordeste 33 Este 0 -- -- 34
2019-05-28 20:00:00 21.4 18 Nordeste 37 Nordeste 0 -- -- 31
2019-05-28 19:00:00 22.2 17 Nordeste 36 Este 0 -- -- 29
2019-05-28 18:00:00 22.7 19 Nordeste 37 Nordeste 0 -- -- 28
2019-05-28 17:00:00 22.8 18 Nordeste 35 Nordeste 0 -- -- 24
2019-05-28 16:00:00 22.3 19 Nordeste 37 Nordeste 0 -- -- 25
2019-05-28 15:00:00 21.6 26 Nordeste 40 Nordeste 0 -- -- 25
2019-05-28 14:00:00 21.4 21 Nordeste 37 Nordeste 0 -- -- 28
2019-05-28 13:00:00 20.4 19 Nordeste 37 Nordeste 0 -- -- 34
2019-05-28 12:00:00 19.4 17 Este 36 Nordeste 0 -- -- 42
2019-05-28 11:00:00 18.5 17 Este 34 Nordeste 0 -- -- 43
2019-05-28 10:00:00 17.2 21 Nordeste 39 Nordeste 0 -- -- 48
2019-05-28 09:00:00 14.4 28 Nordeste 38 Nordeste 0 -- -- 65
2019-05-28 08:00:00 14.8 16 Este 39 Nordeste 0 -- -- 62
2019-05-28 07:00:00 13.8 26 Este 41 Nordeste 0 -- -- 64
2019-05-28 06:00:00 13.8 26 Nordeste 39 Nordeste 0 -- -- 63
2019-05-28 05:00:00 14.6 22 Nordeste 30 Nordeste 0 -- -- 63
2019-05-28 04:00:00 16.2 18 Nordeste 32 Nordeste 0 -- -- 59
2019-05-28 03:00:00 17.1 21 Este 32 Este 0 -- -- 56
2019-05-28 02:00:00 16.8 21 Nordeste 31 Este 0 -- -- 58
2019-05-28 01:00:00 18.3 18 Este 35 Este 0 -- -- 52
2019-05-28 00:00:00 17.6 19 Este 30 Nordeste 0 -- -- 46
2019-05-27 23:00:00 19.4 15 Este 26 Este 0 -- -- 42
2019-05-27 22:00:00 19.8 11 Este 21 Este 0 -- -- 43
2019-05-27 21:00:00 21.7 6 Nordeste 23 Nordeste 0 -- -- 41
2019-05-27 20:00:00 24.1 11 Nordeste 26 Este 0 -- -- 35
2019-05-27 19:00:00 24.4 13 Nordeste 34 Este 0 -- -- 36
2019-05-27 18:00:00 24.2 15 Nordeste 28 Nordeste 0 -- -- 37
2019-05-27 17:00:00 24.8 15 Nordeste 33 Este 0 -- -- 37
2019-05-27 16:00:00 24.7 14 Este 31 Nordeste 0 -- -- 34
2019-05-27 15:00:00 24.1 19 Nordeste 46 Nordeste 0 -- -- 33
2019-05-27 14:00:00 23.8 16 Este 31 Este 0 -- -- 37
2019-05-27 13:00:00 23.3 9 Este 28 Este 0 -- -- 41
2019-05-27 12:00:00 21.8 13 Nordeste 27 Nordeste 0 -- -- 49
2019-05-27 11:00:00 19.9 15 Nordeste 31 Nordeste 0 -- -- 52
2019-05-27 10:00:00 18 17 Nordeste 37 Nordeste 0 -- -- 56
2019-05-27 09:00:00 16.3 26 Nordeste 41 Este 0 -- -- 57
2019-05-27 08:00:00 14.9 31 Este 40 Este 0 -- -- 56
2019-05-27 07:00:00 15.4 22 Nordeste 31 Nordeste 0 -- -- 54
2019-05-27 06:00:00 15.4 16 Nordeste 32 Nordeste 0 -- -- 54
2019-05-27 05:00:00 18.4 18 Este 30 Nordeste 0 -- -- 46
2019-05-27 04:00:00 17.3 19 Nordeste 27 Nordeste 0 -- -- 47
2019-05-27 03:00:00 17.4 19 Nordeste 30 Nordeste 0 -- -- 48
2019-05-27 02:00:00 17.7 13 Nordeste 22 Este 0 -- -- 47
2019-05-27 01:00:00 17.6 11 Nordeste 23 Nordeste 0 -- -- 44
2019-05-27 00:00:00 18.6 15 Este 31 Este 0 -- -- 42
2019-05-26 23:00:00 18.3 18 Este 28 Este 0 -- -- 42
2019-05-26 22:00:00 18.3 14 Nordeste 19 Nordeste 0 -- -- 45
2019-05-26 21:00:00 21 8 Nordeste 28 Nordeste 0 -- -- 39
2019-05-26 20:00:00 23.2 17 Nordeste 33 Nordeste 0 -- -- 32
2019-05-26 19:00:00 23.5 17 Nordeste 40 Este 0 -- -- 32
2019-05-26 18:00:00 23.6 20 Nordeste 42 Nordeste 0 -- -- 34
2019-05-26 17:00:00 22.9 22 Este 46 Este 0 -- -- 35
2019-05-26 16:00:00 22.4 22 Nordeste 40 Nordeste 0 -- -- 35
2019-05-26 15:00:00 21.9 22 Nordeste 44 Nordeste 0 -- -- 37
2019-05-26 14:00:00 21.2 19 Nordeste 39 Este 0 -- -- 41
2019-05-26 13:00:00 20.1 20 Nordeste 42 Este 0 -- -- 45
2019-05-26 12:00:00 18.4 23 Nordeste 40 Nordeste 0 -- -- 47
2019-05-26 11:00:00 16.6 26 Nordeste 43 Nordeste 0 -- -- 51
2019-05-26 10:00:00 15 28 Nordeste 45 Nordeste 0 -- -- 54
2019-05-26 09:00:00 12.2 26 Este 41 Nordeste 0 -- -- 60
2019-05-26 08:00:00 11.2 24 Este 46 Este 0 -- -- 60
2019-05-26 07:00:00 11.2 25 Este 44 Este 0 -- -- 57
2019-05-26 06:00:00 12.2 20 Este 33 Este 0 -- -- 52
2019-05-26 05:00:00 12.4 21 Este 34 Este 0 -- -- 52
2019-05-26 04:00:00 13.1 20 Este 32 Este 0 -- -- 51
2019-05-26 03:00:00 12.9 19 Este 46 Nordeste 0 -- -- 52
2019-05-26 02:00:00 13.1 24 Nordeste 34 Nordeste 0 -- -- 51
2019-05-26 01:00:00 14.3 18 Este 30 Este 0 -- -- 47
2019-05-26 00:00:00 14.2 17 Este 29 Nordeste 0 -- -- 48
2019-05-25 23:00:00 15.3 14 Este 33 Este 0 -- -- 46
2019-05-25 22:00:00 16.1 14 Este 27 Nordeste 0 -- -- 44
2019-05-25 21:00:00 17.7 12 Nordeste 33 Nordeste 0 -- -- 39
2019-05-25 20:00:00 20.2 14 Nordeste 36 Nordeste 0 -- -- 37
2019-05-25 19:00:00 20.4 21 Nordeste 37 Nordeste 0 -- -- 35
2019-05-25 18:00:00 20.9 18 Nordeste 39 Este 0 -- -- 35
2019-05-25 17:00:00 20.6 21 Nordeste 40 Nordeste 0 -- -- 35
2019-05-25 16:00:00 20.4 16 Nordeste 37 Nordeste 0 -- -- 39
2019-05-25 15:00:00 19 16 Nordeste 36 Nordeste 0 -- -- 42
2019-05-25 14:00:00 17.5 20 Nordeste 42 Nordeste 0 -- -- 44
2019-05-25 13:00:00 16.1 25 Nordeste 48 Nordeste 0 -- -- 49
2019-05-25 12:00:00 14.9 28 Nordeste 48 Nordeste 0 -- -- 50
2019-05-25 11:00:00 13.3 26 Este 49 Este 0 -- -- 57
2019-05-25 10:00:00 11.6 28 Este 46 Nordeste 0 -- -- 63
2019-05-25 09:00:00 9.7 25 Este 41 Nordeste 0 -- -- 70
2019-05-25 08:00:00 8.6 24 Este 41 Este 0 -- -- 75
2019-05-25 07:00:00 8.5 23 Este 40 Nordeste 0 -- -- 75
2019-05-25 06:00:00 8.5 21 Este 39 Este 0 -- -- 74
2019-05-25 05:00:00 8.7 24 Este 50 Nordeste 0 -- -- 73
2019-05-25 04:00:00 9.5 30 Este 59 Este 0 -- -- 68
2019-05-25 03:00:00 11.4 23 Este 39 Este 0 -- -- 58
2019-05-25 02:00:00 11.7 25 Este 41 Este 0 -- -- 56
2019-05-25 01:00:00 12.2 22 Este 37 Este 0 -- -- 54
2019-05-25 00:00:00 13.4 24 Este 39 Este 0 -- -- 49
2019-05-24 23:00:00 14.2 20 Este 31 Este 0 -- -- 47
2019-05-24 22:00:00 14.8 14 Nordeste 24 Este 0 -- -- 47
2019-05-24 21:00:00 17.2 11 Nordeste 33 Este 0 -- -- 41
2019-05-24 20:00:00 19.3 20 Nordeste 35 Nordeste 0 -- -- 35
2019-05-24 19:00:00 20.5 15 Nordeste 45 Nordeste 0 -- -- 34
2019-05-24 18:00:00 20.8 20 Nordeste 42 Nordeste 0 -- -- 33
2019-05-24 17:00:00 20.6 24 Nordeste 44 Norte 0 -- -- 34
2019-05-24 16:00:00 20.3 21 Nordeste 44 Este 0 -- -- 35
2019-05-24 15:00:00 19.6 17 Nordeste 41 Nordeste 0 -- -- 41
2019-05-24 14:00:00 18.3 18 Nordeste 41 Este 0 -- -- 47
2019-05-24 13:00:00 17 23 Este 49 Nordeste 0 -- -- 54
2019-05-24 12:00:00 15.2 26 Nordeste 47 Nordeste 0 -- -- 59
2019-05-24 11:00:00 12.4 27 Este 46 Nordeste 0 -- -- 75
2019-05-24 10:00:00 13.7 26 Nordeste 42 Nordeste 0 -- -- 67
2019-05-24 09:00:00 11.5 20 Nordeste 37 Nordeste 0 -- -- 73
2019-05-24 08:00:00 10.4 27 Nordeste 44 Este 0 -- -- 74
2019-05-24 07:00:00 10.9 24 Este 38 Nordeste 0 -- -- 71
2019-05-24 06:00:00 11.5 27 Nordeste 41 Nordeste 0 -- -- 70
2019-05-24 05:00:00 12 22 Nordeste 37 Nordeste 0 -- -- 67
2019-05-24 04:00:00 13.5 19 Este 37 Este 0 -- -- 62
2019-05-24 03:00:00 13.6 15 Nordeste 35 Este 0 -- -- 62
2019-05-24 02:00:00 14.6 18 Este 36 Este 0 -- -- 64
2019-05-24 01:00:00 15.3 20 Este 37 Este 0 -- -- 64
2019-05-24 00:00:00 16.4 20 Este 36 Este 0 -- -- 61
2019-05-23 23:00:00 17.7 18 Este 30 Nordeste 0 -- -- 50
2019-05-23 22:00:00 18.6 9 Nordeste 28 Nordeste 0 -- -- 46
2019-05-23 21:00:00 20.7 4 Este 14 Oeste 0 -- -- 52
2019-05-23 20:00:00 22.8 8 Oeste 21 Oeste 0 -- -- 44
2019-05-23 19:00:00 24.3 13 Sudoeste 22 Sudoeste 0 -- -- 38
2019-05-23 18:00:00 24.1 11 Sudoeste 27 Oeste 0 -- -- 30
2019-05-23 17:00:00 23.6 21 Sudoeste 33 Sudoeste -- -- -- 29
2019-05-23 16:00:00 23.3 21 Sudoeste 33 Sudoeste 0 -- -- 33
2019-05-23 15:00:00 22.9 21 Sudoeste 32 Sudoeste 0 -- -- 34
2019-05-23 14:00:00 22.3 21 Sudoeste 30 Oeste 0 -- -- 39
2019-05-23 13:00:00 20.6 19 Sudoeste 35 Sudoeste 0 -- -- 49
2019-05-23 12:00:00 20.7 20 Sudoeste 28 Sudoeste 0 -- -- 40
2019-05-23 11:00:00 18.8 9 Sudoeste 17 Sudoeste 0 -- -- 49
2019-05-23 10:00:00 18 8 Sudoeste 12 Sudoeste 0 -- -- 54
2019-05-23 09:00:00 16.2 3 Sudoeste 14 Nordeste 0 -- -- 66
2019-05-23 08:00:00 14.9 12 Nordeste 19 Nordeste 0 -- -- 65
2019-05-23 07:00:00 15 13 Nordeste 29 Este 0 -- -- 68
2019-05-23 06:00:00 15.3 19 Nordeste 33 Este 0 -- -- 67
2019-05-23 05:00:00 15.1 23 Este 40 Este 0 -- -- 65
2019-05-23 04:00:00 14.9 23 Este 40 Este 0 -- -- 60
2019-05-23 03:00:00 15.9 22 Este 36 Este 0 -- -- 50
2019-05-23 02:00:00 15.9 22 Nordeste 37 Nordeste 0 -- -- 49
2019-05-23 01:00:00 15.6 8 Este 10 Este 0 -- -- 52
2019-05-23 00:00:00 15.9 7 Este 10 Sudeste 0 -- -- 52
2019-05-22 23:00:00 16.2 5 Este 13 Este 0 -- -- 51
2019-05-22 22:00:00 16.9 8 Este 14 Sudeste 0 -- -- 50
2019-05-22 21:00:00 19.8 6 Este 17 Sudoeste 0 -- -- 42
2019-05-22 20:00:00 23.6 13 Sudoeste 22 Oeste 0 -- -- 31
2019-05-22 19:00:00 24.5 13 Sudoeste 22 Sudoeste 0 -- -- 33
2019-05-22 18:00:00 24 13 Sudoeste 26 Sudoeste 0 -- -- 36
2019-05-22 17:00:00 24.1 18 Sudoeste 27 Sudoeste 0 -- -- 37
2019-05-22 16:00:00 23.2 16 Sudoeste 27 Sudoeste 0 -- -- 40
2019-05-22 15:00:00 23 17 Sudoeste 28 Sudoeste 0 -- -- 40
2019-05-22 14:00:00 22.9 18 Sudoeste 28 Sudoeste 0 -- -- 40
2019-05-22 13:00:00 21.5 15 Sudoeste 21 Oeste 0 -- -- 43
2019-05-22 12:00:00 20.1 9 Sudoeste 13 Sudoeste 0 -- -- 42
2019-05-22 11:00:00 19.2 5 Oeste 10 Oeste 0 -- -- 44
2019-05-22 10:00:00 18.2 2 Sudoeste 16 Nordeste 0 -- -- 45
2019-05-22 09:00:00 15 10 Este 26 Nordeste 0 -- -- 50
2019-05-22 08:00:00 13 17 Nordeste 34 Nordeste 0 -- -- 51
2019-05-22 07:00:00 12.4 26 Nordeste 34 Nordeste 0 -- -- 52
2019-05-22 06:00:00 12.2 22 Nordeste 51 Nordeste 0 -- -- 52
2019-05-22 05:00:00 13.1 25 Nordeste 33 Nordeste 0 -- -- 49
2019-05-22 04:00:00 13 23 Nordeste 31 Nordeste 0 -- -- 49
2019-05-22 03:00:00 14 14 Nordeste 21 Este 0 -- -- 47
2019-05-22 02:00:00 15.7 16 Este 26 Nordeste 0 -- -- 42
2019-05-22 01:00:00 14.7 11 Este 15 Este 0 -- -- 48
2019-05-22 00:00:00 13.9 9 Nordeste 18 Nordeste 0 -- -- 54